Time;durP1;ratioP1;P1;durP2;ratioP2;P2;SDS_P1;SDS_P2;PMS_P1;PMS_P2;Temp;Humidity;BMP_temperature;BMP_pressure;BME280_temperature;BME280_humidity;BME280_pressure;Samples;Min_cycle;Max_cycle;Signal;HPM_P1;HPM_P2
2022/10/02 00:03:25;;;;;;;5.47;2.00;;;;;;;9.34;100.00;96342.34;10454039;28;20192;-58
2022/10/02 00:08:37;;;;;;;10.70;2.03;;;;;;;9.26;100.00;96353.56;10454006;28;20242;-56
2022/10/02 00:13:40;;;;;;;3.27;1.60;;;;;;;9.27;100.00;96357.00;10453351;28;20575;-58
2022/10/02 00:18:41;;;;;;;6.43;2.13;;;;;;;9.18;100.00;96366.59;10454632;28;20212;-59
2022/10/02 00:23:48;;;;;;;8.57;2.30;;;;;;;9.20;100.00;96369.03;10453305;28;20215;-57
2022/10/02 00:29:26;;;;;;;6.03;1.77;;;;;;;9.23;100.00;96372.19;10453721;28;20268;-60
2022/10/02 00:34:36;;;;;;;6.73;2.00;;;;;;;9.32;100.00;96373.03;10453808;28;20226;-57
2022/10/02 00:40:02;;;;;;;10.53;2.30;;;;;;;9.33;100.00;96381.69;10452167;28;20216;-60
2022/10/02 00:45:14;;;;;;;8.30;2.23;;;;;;;9.35;100.00;96384.97;10453490;28;20291;-59
2022/10/02 00:50:27;;;;;;;9.03;2.30;;;;;;;9.51;100.00;96374.59;10453609;28;20203;-56
2022/10/02 00:55:50;;;;;;;6.40;2.10;;;;;;;9.53;100.00;96387.50;10451633;28;20240;-59
2022/10/02 01:01:02;;;;;;;8.37;2.27;;;;;;;9.50;100.00;96404.31;10452617;28;20636;-58
2022/10/02 01:06:02;;;;;;;7.60;2.13;;;;;;;9.54;100.00;96395.19;10452188;28;20219;-57
2022/10/02 01:11:04;;;;;;;4.97;2.17;;;;;;;9.54;100.00;96399.56;10451892;28;20662;-59
2022/10/02 01:16:10;;;;;;;8.73;2.10;;;;;;;9.56;100.00;96410.72;10452334;28;20254;-61
2022/10/02 01:21:33;;;;;;;7.87;1.90;;;;;;;9.48;100.00;96424.56;10451058;28;20246;-60
2022/10/02 01:26:33;;;;;;;6.93;2.00;;;;;;;9.33;100.00;96426.94;10422412;28;20271;-59
2022/10/02 01:31:34;;;;;;;6.87;1.83;;;;;;;9.31;100.00;96438.53;10408113;28;20188;-60
2022/10/02 01:36:34;;;;;;;10.00;2.10;;;;;;;9.25;100.00;96438.19;10402658;28;20206;-61
2022/10/02 01:41:40;;;;;;;10.63;2.77;;;;;;;9.27;100.00;96441.44;10407358;28;20232;-61
2022/10/02 01:46:58;;;;;;;8.13;2.27;;;;;;;9.15;100.00;96453.13;10422915;28;20649;-60
2022/10/02 01:52:07;;;;;;;5.77;1.93;;;;;;;9.10;100.00;96450.19;10423204;28;20283;-61
2022/10/02 01:57:13;;;;;;;15.07;2.30;;;;;;;9.08;100.00;96455.56;10407313;28;20294;-60
2022/10/02 02:02:44;;;;;;;7.77;2.40;;;;;;;8.99;100.00;96451.25;10407624;28;20216;-60
2022/10/02 02:08:02;;;;;;;10.17;2.30;;;;;;;9.08;100.00;96457.34;10407185;28;20212;-61
2022/10/02 02:13:26;;;;;;;9.17;2.10;;;;;;;9.05;100.00;96465.47;10421901;28;20192;-61
2022/10/02 02:18:31;;;;;;;8.43;2.43;;;;;;;9.07;100.00;96464.38;10413107;28;20573;-60
2022/10/02 02:23:34;;;;;;;11.90;2.53;;;;;;;9.07;100.00;96469.59;10414981;28;20671;-55
2022/10/02 02:28:37;;;;;;;10.57;2.70;;;;;;;9.14;100.00;96480.25;10413896;28;20590;-56
2022/10/02 02:33:41;;;;;;;9.83;2.67;;;;;;;9.30;100.00;96482.16;10430316;28;20307;-58
2022/10/02 02:38:46;;;;;;;11.00;2.90;;;;;;;9.38;100.00;96469.13;10429659;28;20212;-54
2022/10/02 02:43:50;;;;;;;11.20;2.27;;;;;;;9.41;100.00;96478.47;10414084;28;20216;-60
2022/10/02 02:48:56;;;;;;;11.20;2.27;;;;;;;9.36;100.00;96476.31;10412956;28;20189;-58
2022/10/02 02:54:17;;;;;;;8.37;2.40;;;;;;;9.33;100.00;96481.03;10413870;28;20251;-59
2022/10/02 02:59:19;;;;;;;13.33;2.50;;;;;;;9.40;100.00;96476.81;10413646;28;21105;-60
2022/10/02 03:04:20;;;;;;;8.70;2.50;;;;;;;9.40;100.00;96477.66;10434404;28;20392;-60
2022/10/02 03:09:21;;;;;;;16.17;2.30;;;;;;;9.44;100.00;96472.91;10454411;28;20666;-59
2022/10/02 03:14:49;;;;;;;11.97;3.00;;;;;;;9.28;100.00;96471.84;10454239;28;20222;-58
2022/10/02 03:20:00;;;;;;;8.47;2.20;;;;;;;9.32;100.00;96479.38;10454058;28;20713;-58
2022/10/02 03:25:15;;;;;;;8.70;2.57;;;;;;;9.08;100.00;96488.69;10452627;28;20740;-59
2022/10/02 03:30:23;;;;;;;9.80;2.90;;;;;;;9.09;100.00;96496.38;10453680;28;20564;-60
2022/10/02 03:35:23;;;;;;;10.30;2.73;;;;;;;9.06;100.00;96488.84;10452366;28;20219;-59
2022/10/02 03:40:25;;;;;;;9.13;2.27;;;;;;;9.05;100.00;96495.06;10453030;28;20226;-60
2022/10/02 03:45:27;;;;;;;11.77;2.67;;;;;;;9.00;100.00;96492.06;10452616;28;20311;-60
2022/10/02 03:50:27;;;;;;;13.30;2.43;;;;;;;9.24;100.00;96488.00;10453179;28;20214;-59
2022/10/02 03:55:35;;;;;;;15.80;2.53;;;;;;;9.24;100.00;96495.84;10452188;28;20228;-60
2022/10/02 04:00:38;;;;;;;8.40;2.00;;;;;;;9.16;100.00;96501.00;10450792;28;20265;-60
2022/10/02 04:05:44;;;;;;;4.70;2.30;;;;;;;9.09;100.00;96501.59;10449410;28;20265;-60
2022/10/02 04:11:03;;;;;;;10.67;2.30;;;;;;;9.02;100.00;96504.97;10450867;28;20261;-59
2022/10/02 04:16:12;;;;;;;9.70;2.10;;;;;;;8.87;100.00;96508.16;10451830;28;20751;-60
2022/10/02 04:21:25;;;;;;;8.90;1.93;;;;;;;8.91;100.00;96514.72;10450694;28;20269;-60
2022/10/02 04:26:29;;;;;;;8.33;2.47;;;;;;;8.82;100.00;96513.00;10451163;28;20346;-60
2022/10/02 04:31:30;;;;;;;6.17;1.83;;;;;;;8.72;100.00;96512.25;10450191;28;20654;-59
2022/10/02 04:36:30;;;;;;;10.43;2.13;;;;;;;8.79;100.00;96507.25;10451165;28;20212;-60
2022/10/02 04:41:49;;;;;;;11.07;2.33;;;;;;;8.69;100.00;96517.78;10449979;28;20227;-60
2022/10/02 04:47:10;;;;;;;7.90;2.30;;;;;;;8.69;100.00;96530.84;10450631;28;20223;-60
2022/10/02 04:52:16;;;;;;;10.13;2.37;;;;;;;8.72;100.00;96522.69;10449552;28;20188;-60
2022/10/02 04:57:27;;;;;;;7.10;1.80;;;;;;;8.65;100.00;96525.09;10450018;28;20258;-57
2022/10/02 05:02:36;;;;;;;9.70;2.50;;;;;;;8.65;100.00;96529.47;10450191;28;20227;-58
2022/10/02 05:07:49;;;;;;;8.50;2.63;;;;;;;8.65;100.00;96526.88;10450171;28;20253;-59
2022/10/02 05:13:03;;;;;;;7.30;2.47;;;;;;;8.62;100.00;96524.56;10450002;28;20224;-61
2022/10/02 05:18:37;;;;;;;10.10;2.27;;;;;;;8.65;100.00;96529.47;10449573;28;20582;-59
2022/10/02 05:24:01;;;;;;;9.97;2.90;;;;;;;8.52;100.00;96535.91;10448236;28;20215;-60
2022/10/02 05:29:37;;;;;;;10.63;2.40;;;;;;;8.79;100.00;96534.22;10448242;28;20206;-58
2022/10/02 05:34:55;;;;;;;10.43;2.80;;;;;;;8.71;100.00;96523.66;10447774;28;20207;-61
2022/10/02 05:40:17;;;;;;;10.03;2.67;;;;;;;8.64;100.00;96522.66;10448421;28;20226;-59
2022/10/02 05:45:36;;;;;;;11.97;3.77;;;;;;;8.79;100.00;96533.38;10448379;28;20595;-60
2022/10/02 05:50:37;;;;;;;9.93;2.63;;;;;;;8.80;100.00;96535.00;10450563;28;20227;-60
2022/10/02 05:55:54;;;;;;;10.57;2.40;;;;;;;9.12;100.00;96542.31;10457298;28;21044;-59
2022/10/02 06:01:05;;;;;;;12.20;4.20;;;;;;;9.14;100.00;96542.16;10456127;28;20226;-60
2022/10/02 06:06:19;;;;;;;10.37;3.57;;;;;;;9.15;100.00;96542.00;10453678;28;20222;-57
2022/10/02 06:11:35;;;;;;;11.00;3.33;;;;;;;9.21;100.00;96533.56;10454737;28;20195;-60
2022/10/02 06:16:39;;;;;;;14.97;5.90;;;;;;;9.59;100.00;96522.84;10455012;28;20206;-60
2022/10/02 06:22:06;;;;;;;10.93;2.50;;;;;;;10.17;100.00;96514.28;10453071;28;20611;-61
2022/10/02 06:27:16;;;;;;;9.57;3.28;;;;;;;10.55;100.00;96502.59;10453986;28;20640;-61
2022/10/02 06:32:45;;;;;;;11.90;2.88;;;;;;;10.69;100.00;96508.03;10454971;28;20206;-60
2022/10/02 06:37:55;;;;;;;8.32;2.38;;;;;;;11.22;100.00;96510.31;10454753;28;20291;-61
2022/10/02 06:43:04;;;;;;;8.35;2.70;;;;;;;11.33;100.00;96517.88;10454362;28;20207;-59
2022/10/02 06:48:24;;;;;;;41.85;21.75;;;;;;;11.52;100.00;96510.63;10454323;28;20751;-61
2022/10/02 06:54:03;;;;;;;10.82;2.90;;;;;;;11.78;100.00;96510.38;10454002;28;20279;-60
2022/10/02 06:59:09;;;;;;;6.78;2.53;;;;;;;12.05;100.00;96498.69;10404647;28;20268;-62
2022/10/02 07:04:21;;;;;;;6.50;2.13;;;;;;;12.06;100.00;96496.84;10453362;28;20223;-62
2022/10/02 07:09:34;;;;;;;6.80;2.20;;;;;;;11.82;100.00;96485.41;10452138;28;20690;-61
2022/10/02 07:14:51;;;;;;;10.15;2.17;;;;;;;12.49;100.00;96479.69;10453270;28;20220;-61
2022/10/02 07:20:07;;;;;;;8.23;2.45;;;;;;;12.08;100.00;96482.56;10452270;28;20227;-61
2022/10/02 07:25:55;;;;;;;5.47;2.00;;;;;;;11.88;100.00;96503.16;10446335;28;20211;-62
2022/10/02 07:31:00;;;;;;;6.85;1.95;;;;;;;11.46;100.00;96504.22;10445243;28;20291;-56
2022/10/02 07:36:33;;;;;;;10.80;2.50;;;;;;;11.33;100.00;96510.00;10452320;28;20346;-56
2022/10/02 07:41:51;;;;;;;8.55;2.60;;;;;;;11.59;100.00;96514.19;10451236;28;20232;-60
2022/10/02 07:47:15;;;;;;;6.88;2.60;;;;;;;11.71;100.00;96517.28;10451648;28;20239;-61
2022/10/02 07:52:34;;;;;;;10.02;2.85;;;;;;;11.77;100.00;96511.38;10453179;28;20207;-60
2022/10/02 07:57:41;;;;;;;9.70;2.75;;;;;;;12.56;100.00;96506.09;10452741;28;20723;-60
2022/10/02 08:02:52;;;;;;;11.57;2.38;;;;;;;11.94;100.00;96515.63;10452329;28;20776;-53
2022/10/02 08:07:57;;;;;;;8.60;2.97;;;;;;;12.10;100.00;96516.53;10452297;28;20207;-60
2022/10/02 08:13:20;;;;;;;7.38;2.17;;;;;;;12.37;100.00;96502.09;10449992;28;20654;-57
2022/10/02 08:18:58;;;;;;;7.18;2.47;;;;;;;12.32;100.00;96514.94;10450722;28;20219;-56
2022/10/02 08:24:03;;;;;;;8.65;2.50;;;;;;;12.78;100.00;96509.72;10447385;28;20235;-62
2022/10/02 08:29:16;;;;;;;7.05;2.28;;;;;;;12.96;100.00;96498.91;10450316;28;20594;-62
2022/10/02 08:34:22;;;;;;;14.10;3.05;;;;;;;13.47;100.00;96493.06;10450205;28;20292;-61
2022/10/02 08:39:43;;;;;;;8.45;2.25;;;;;;;13.69;100.00;96490.53;10450626;28;20219;-56
2022/10/02 08:44:56;;;;;;;6.72;2.08;;;;;;;14.78;94.58;96440.53;10450695;28;20212;-61
2022/10/02 08:50:05;;;;;;;8.75;2.05;;;;;;;15.45;86.84;96396.13;10409269;28;20196;-62
2022/10/02 08:55:57;;;;;;;10.57;2.42;;;;;;;15.63;85.76;96398.25;10408094;28;20233;-59
2022/10/02 09:01:35;;;;;;;11.60;2.00;;;;;;;15.16;86.90;96410.38;10391786;28;20235;-61
2022/10/02 09:07:12;;;;;;;5.57;1.90;;;;;;;15.47;84.23;96399.38;10409892;28;20217;-61
2022/10/02 09:12:32;;;;;;;10.40;2.15;;;;;;;16.50;83.20;96411.75;10410559;28;20267;-62
2022/10/02 09:17:44;;;;;;;10.05;2.10;;;;;;;16.48;76.14;96346.88;10408461;28;20227;-63
2022/10/02 09:23:09;;;;;;;10.05;2.10;;;;;;;15.40;82.82;96418.84;10406917;28;20213;-61
2022/10/02 09:28:28;;;;;;;6.13;1.73;;;;;;;15.86;82.04;96413.84;10408094;28;20841;-62
2022/10/02 09:33:47;;;;;;;6.57;1.80;;;;;;;14.60;83.82;96411.97;10408119;28;20189;-62
2022/10/02 09:39:01;;;;;;;6.57;1.48;;;;;;;15.53;84.36;96418.94;10407138;28;20216;-61
2022/10/02 09:44:16;;;;;;;9.93;1.70;;;;;;;15.20;86.04;96424.00;10407629;28;20586;-56
2022/10/02 09:49:48;;;;;;;9.30;1.90;;;;;;;16.61;78.98;96354.00;10390749;28;20275;-61
2022/10/02 09:55:13;;;;;;;5.68;1.65;;;;;;;17.27;74.78;96326.66;10407618;28;20232;-61
2022/10/02 10:00:56;;;;;;;6.70;1.90;;;;;;;15.89;77.17;96343.13;10407430;28;20703;-59
2022/10/02 10:06:52;;;;;;;7.05;2.08;;;;;;;14.85;83.96;96395.72;10416915;28;20590;-59
2022/10/02 10:12:21;;;;;;;9.32;2.58;;;;;;;15.38;84.06;96397.13;10428653;28;20235;-60
2022/10/02 10:17:40;;;;;;;5.70;1.90;;;;;;;15.45;86.22;96411.16;10407321;28;20733;-61
2022/10/02 10:23:18;;;;;;;9.93;1.48;;;;;;;14.12;87.89;96411.66;10407177;28;20733;-58
2022/10/02 10:28:52;;;;;;;5.35;1.88;;;;;;;13.97;91.53;96440.66;10400677;28;20264;-60
2022/10/02 10:34:34;;;;;;;7.65;1.85;;;;;;;14.24;91.39;96440.97;10422147;28;20209;-58
2022/10/02 10:39:53;;;;;;;7.03;2.55;;;;;;;13.11;100.00;96488.44;10412493;28;20224;-59
2022/10/02 10:45:02;;;;;;;5.95;2.03;;;;;;;12.99;100.00;96488.03;10414465;28;20296;-60
2022/10/02 10:50:14;;;;;;;9.18;2.92;;;;;;;12.69;100.00;96487.13;10414627;28;20180;-62
2022/10/02 10:55:50;;;;;;;14.82;4.45;;;;;;;13.43;100.00;96478.66;10413651;28;20706;-63
2022/10/02 11:01:19;;;;;;;11.88;2.85;;;;;;;14.20;100.00;96453.69;10436771;22;20237;-59
2022/10/02 11:06:40;;;;;;;9.57;2.42;;;;;;;15.05;100.00;96437.28;10413424;28;20326;-59
2022/10/02 11:12:04;;;;;;;6.85;2.35;;;;;;;15.27;100.00;96414.31;10412427;28;20236;-60
2022/10/02 11:17:17;;;;;;;9.80;2.22;;;;;;;13.60;100.00;96425.81;10413243;28;20189;-61
2022/10/02 11:22:38;;;;;;;10.25;2.40;;;;;;;13.37;100.00;96460.94;10428370;28;20290;-61
2022/10/02 11:28:04;;;;;;;6.65;2.08;;;;;;;13.48;100.00;96464.94;10412930;28;20192;-60
2022/10/02 11:33:11;;;;;;;10.35;2.80;;;;;;;12.98;100.00;96462.75;10427549;28;20220;-62
2022/10/02 11:38:24;;;;;;;6.53;1.80;;;;;;;12.65;100.00;96451.69;10412627;28;20271;-60
2022/10/02 11:43:28;;;;;;;5.00;1.92;;;;;;;12.49;100.00;96458.69;10411501;28;20219;-59
2022/10/02 11:49:00;;;;;;;4.35;1.90;;;;;;;11.75;100.00;96461.66;10426523;28;20738;-60
2022/10/02 11:54:03;;;;;;;4.38;1.83;;;;;;;11.39;100.00;96472.63;10411613;28;20189;-63
2022/10/02 11:59:26;;;;;;;2.67;1.20;;;;;;;11.28;100.00;96483.44;10411713;28;20221;-61
2022/10/02 12:04:40;;;;;;;4.32;1.45;;;;;;;11.03;100.00;96483.47;10411265;28;20750;-60
2022/10/02 12:09:55;;;;;;;3.08;1.40;;;;;;;11.39;100.00;96480.47;10411451;28;20235;-61
2022/10/02 12:15:07;;;;;;;3.80;1.60;;;;;;;11.36;100.00;96478.19;10410758;28;20199;-63
2022/10/02 12:31:23;;;;;;;2.90;1.10;;;;;;;11.74;100.00;96465.28;10423340;28;20211;-63
2022/10/02 12:36:39;;;;;;;2.88;1.38;;;;;;;11.82;100.00;96447.88;10410513;28;20203;-62
2022/10/02 12:41:45;;;;;;;3.88;1.23;;;;;;;11.87;100.00;96453.44;10409554;28;20220;-61
2022/10/02 12:47:01;;;;;;;3.35;1.60;;;;;;;12.99;100.00;96448.59;10409691;28;20605;-60
2022/10/02 12:52:16;;;;;;;3.05;1.40;;;;;;;14.07;100.00;96406.13;10424711;28;20239;-57
2022/10/02 13:03:10;;;;;;;7.93;1.58;;;;;;;13.80;100.00;96423.44;10408387;28;20316;-59
2022/10/02 13:08:19;;;;;;;3.05;1.50;;;;;;;13.88;100.00;96411.00;10409179;28;20188;-56
2022/10/02 13:13:49;;;;;;;3.05;1.33;;;;;;;14.17;98.61;96366.31;10408641;28;20220;-57
2022/10/02 13:18:51;;;;;;;5.68;1.92;;;;;;;15.23;95.85;96360.28;10405242;28;20294;-58
2022/10/02 13:24:02;;;;;;;5.72;1.92;;;;;;;14.67;99.87;96369.84;10408367;28;20243;-59
2022/10/02 13:29:26;;;;;;;6.78;1.80;;;;;;;14.72;96.44;96364.81;10423953;28;20192;-61
2022/10/02 13:34:45;;;;;;;6.22;2.05;;;;;;;14.57;93.90;96359.59;10408248;28;20279;-61
2022/10/02 13:40:18;;;;;;;6.50;1.70;;;;;;;15.05;91.37;96345.75;10407418;28;20362;-59
2022/10/02 13:45:28;;;;;;;7.10;1.70;;;;;;;14.84;95.41;96374.81;10406850;28;20600;-60
2022/10/02 13:50:42;;;;;;;5.22;1.58;;;;;;;15.02;94.08;96361.16;10407983;28;21145;-63
2022/10/02 13:55:45;;;;;;;8.75;1.90;;;;;;;14.77;95.79;96377.41;10407982;28;20250;-62
2022/10/02 14:01:17;;;;;;;6.82;2.53;;;;;;;14.82;93.39;96353.91;10405934;28;20294;-61
2022/10/02 14:06:39;;;;;;;7.25;2.10;;;;;;;15.08;93.96;96368.31;10406312;28;20200;-61
2022/10/02 14:12:02;;;;;;;5.75;1.90;;;;;;;15.92;88.11;96332.16;10410150;28;20208;-62
2022/10/02 14:17:12;;;;;;;6.22;1.95;;;;;;;15.92;87.53;96330.31;10431117;28;20228;-61
2022/10/02 14:22:25;;;;;;;8.88;2.33;;;;;;;16.15;87.81;96355.56;10415244;28;20224;-63
2022/10/02 14:27:44;;;;;;;7.20;1.95;;;;;;;14.48;91.23;96373.91;10415267;28;20201;-61
2022/10/02 14:32:53;;;;;;;4.68;1.70;;;;;;;14.64;91.15;96370.22;10414975;28;20204;-63
2022/10/02 14:38:05;;;;;;;5.00;2.08;;;;;;;13.76;98.43;96407.19;10430451;28;20197;-60
2022/10/02 14:43:33;;;;;;;3.92;1.83;;;;;;;13.70;97.26;96389.50;10413772;28;20586;-60
2022/10/02 14:48:45;;;;;;;4.38;1.92;;;;;;;13.95;95.95;96378.66;10414385;28;20617;-61
2022/10/02 14:53:54;;;;;;;4.03;1.85;;;;;;;13.46;98.92;96399.34;10414459;28;20579;-63
2022/10/02 14:59:29;;;;;;;7.10;2.22;;;;;;;13.42;100.00;96410.41;10413991;28;20711;-60
2022/10/02 15:04:55;;;;;;;4.88;1.50;;;;;;;13.45;100.00;96399.53;10413804;28;20197;-58
2022/10/02 15:10:15;;;;;;;5.85;2.33;;;;;;;13.25;100.00;96413.19;10402949;28;20573;-60
2022/10/02 15:15:41;;;;;;;11.25;2.60;;;;;;;13.34;100.00;96429.75;10413548;28;20250;-61
2022/10/02 15:20:59;;;;;;;6.90;3.88;;;;;;;12.89;100.00;96439.34;10413525;28;20216;-60
2022/10/02 15:26:18;;;;;;;10.10;2.55;;;;;;;13.82;100.00;96445.94;10411940;28;20685;-61
2022/10/02 15:31:36;;;;;;;4.85;1.50;;;;;;;16.06;89.06;96376.06;10413098;28;20269;-61
2022/10/02 15:37:05;;;;;;;8.90;2.03;;;;;;;17.35;77.62;96317.66;10446808;28;20195;-63
2022/10/02 15:42:08;;;;;;;7.30;2.05;;;;;;;15.44;83.10;96377.84;10452004;28;20278;-59
2022/10/02 15:47:11;;;;;;;6.43;2.20;;;;;;;14.36;87.31;96407.84;10451966;28;20210;-59
2022/10/02 15:52:38;;;;;;;6.63;2.33;;;;;;;13.30;93.46;96439.75;10453473;28;20269;-63
2022/10/02 15:57:52;;;;;;;8.95;1.95;;;;;;;12.69;100.00;96457.41;10452833;28;20191;-63
2022/10/02 16:03:15;;;;;;;5.18;2.25;;;;;;;12.48;100.00;96478.06;10451597;28;20583;-63
2022/10/02 16:08:41;;;;;;;4.70;2.05;;;;;;;12.05;100.00;96476.84;10451389;28;20191;-63
2022/10/02 16:14:05;;;;;;;8.20;2.17;;;;;;;12.04;100.00;96477.84;10451258;28;20216;-63
2022/10/02 16:19:23;;;;;;;8.25;2.08;;;;;;;11.65;100.00;96474.16;10452417;28;20234;-63
2022/10/02 16:24:52;;;;;;;7.35;2.85;;;;;;;11.48;100.00;96493.56;10452109;28;20196;-63
2022/10/02 16:30:07;;;;;;;6.30;2.38;;;;;;;11.04;100.00;96500.84;10450846;28;20231;-63
2022/10/02 16:36:01;;;;;;;7.00;2.60;;;;;;;10.97;100.00;96502.47;10450778;28;20227;-63
2022/10/02 16:41:14;;;;;;;6.03;2.78;;;;;;;10.92;100.00;96509.19;10450737;28;20227;-61
2022/10/02 16:46:32;;;;;;;9.38;3.70;;;;;;;10.80;100.00;96506.09;10451216;28;20683;-62
2022/10/02 16:51:37;;;;;;;9.68;3.47;;;;;;;10.71;100.00;96519.16;10460335;28;20203;-61
2022/10/02 16:57:13;;;;;;;6.85;2.38;;;;;;;10.51;100.00;96523.06;10459859;28;20185;-63
2022/10/02 17:02:25;;;;;;;4.45;2.33;;;;;;;10.44;100.00;96533.34;10430280;28;20720;-62
2022/10/02 17:07:51;;;;;;;10.70;3.20;;;;;;;10.42;100.00;96547.59;10450990;23;20244;-58
2022/10/02 17:12:56;;;;;;;9.73;3.03;;;;;;;10.65;100.00;96556.47;10408222;28;20600;-60
2022/10/02 17:18:12;;;;;;;11.63;2.58;;;;;;;10.71;100.00;96558.47;10407295;28;20247;-60
2022/10/02 17:23:33;;;;;;;9.23;2.50;;;;;;;10.82;100.00;96565.19;10406866;28;20749;-61
2022/10/02 17:28:48;;;;;;;9.90;3.03;;;;;;;10.92;100.00;96565.06;10407264;28;20215;-60
2022/10/02 17:33:55;;;;;;;12.15;2.97;;;;;;;10.80;100.00;96569.78;10406585;28;20682;-60
2022/10/02 17:39:17;;;;;;;6.20;3.83;;;;;;;10.77;100.00;96577.16;10407820;28;20211;-59
2022/10/02 17:44:34;;;;;;;8.53;3.13;;;;;;;10.67;100.00;96585.97;10407247;28;20295;-59
2022/10/02 17:50:14;;;;;;;8.77;2.83;;;;;;;10.68;100.00;96579.75;10406473;28;20189;-60
2022/10/02 18:00:40;;;;;;;13.23;3.97;;;;;;;10.55;100.00;96596.91;10405236;28;20274;-59
2022/10/02 18:05:49;;;;;;;7.70;2.80;;;;;;;10.64;100.00;96604.66;10405748;28;20386;-59
2022/10/02 18:11:02;;;;;;;5.78;2.63;;;;;;;10.67;100.00;96606.94;10407219;28;20215;-61
2022/10/02 18:16:16;;;;;;;6.35;2.47;;;;;;;10.51;100.00;96615.56;10405558;28;20220;-59
2022/10/02 18:21:33;;;;;;;10.88;2.97;;;;;;;10.56;100.00;96622.94;10406917;28;20216;-60
2022/10/02 18:27:11;;;;;;;6.68;2.05;;;;;;;10.37;100.00;96638.91;10406237;28;20212;-58
2022/10/02 18:32:34;;;;;;;8.40;2.70;;;;;;;10.43;100.00;96644.34;10406364;28;20832;-62
2022/10/02 18:37:57;;;;;;;5.40;2.63;;;;;;;10.24;100.00;96640.13;10406068;28;20244;-62
2022/10/02 18:43:33;;;;;;;9.87;1.87;;;;;;;10.14;100.00;96644.66;10405827;28;20267;-61
2022/10/02 18:48:33;;;;;;;6.87;1.93;;;;;;;10.23;100.00;96648.13;10404803;28;20765;-61
2022/10/02 18:53:42;;;;;;;4.07;2.13;;;;;;;10.10;100.00;96652.00;10405677;28;20255;-59
2022/10/02 18:58:43;;;;;;;4.53;1.80;;;;;;;9.93;100.00;96658.91;10409886;28;20223;-62
2022/10/02 19:04:08;;;;;;;4.87;2.00;;;;;;;9.76;100.00;96658.00;10412574;28;20240;-61
2022/10/02 19:09:08;;;;;;;5.83;2.00;;;;;;;9.60;100.00;96663.09;10411816;28;20247;-61
2022/10/02 19:14:23;;;;;;;8.10;1.70;;;;;;;9.63;100.00;96684.56;10412660;28;20639;-61
2022/10/02 19:19:25;;;;;;;3.93;1.70;;;;;;;9.70;100.00;96682.13;10411269;28;20310;-60
2022/10/02 19:24:30;;;;;;;5.80;2.00;;;;;;;9.70;100.00;96686.56;10412546;28;20209;-61
2022/10/02 19:29:41;;;;;;;4.57;1.80;;;;;;;9.74;100.00;96695.72;10411046;28;20361;-57
2022/10/02 19:34:42;;;;;;;5.13;2.10;;;;;;;9.78;100.00;96710.16;10410544;28;20215;-60
2022/10/02 19:39:54;;;;;;;5.37;1.70;;;;;;;9.72;100.00;96702.91;10410419;28;20311;-60
2022/10/02 19:45:01;;;;;;;7.50;2.20;;;;;;;9.55;100.00;96710.63;10410533;28;20204;-59
2022/10/02 19:50:02;;;;;;;6.23;1.80;;;;;;;9.50;100.00;96725.13;10411582;28;20192;-60
2022/10/02 19:55:17;;;;;;;6.73;2.40;;;;;;;9.44;100.00;96723.94;10411233;28;20216;-59
2022/10/02 20:00:18;;;;;;;4.87;2.00;;;;;;;9.46;100.00;96724.59;10410336;28;20209;-61
2022/10/02 20:05:25;;;;;;;9.30;2.10;;;;;;;9.42;100.00;96737.16;10411443;28;20232;-61
2022/10/02 20:10:35;;;;;;;4.43;1.80;;;;;;;9.39;100.00;96732.22;10410274;28;20242;-60
2022/10/02 20:21:27;;;;;;;3.33;1.87;;;;;;;9.23;100.00;96739.88;10410865;28;20580;-59
2022/10/02 20:26:28;;;;;;;8.40;2.33;;;;;;;9.19;100.00;96742.00;10409330;28;20687;-58
2022/10/02 20:31:36;;;;;;;6.37;1.90;;;;;;;9.35;100.00;96753.59;10409307;28;20420;-59
2022/10/02 20:36:51;;;;;;;4.90;1.90;;;;;;;9.48;100.00;96750.59;10408817;28;20254;-58
2022/10/02 20:42:03;;;;;;;8.97;2.50;;;;;;;9.65;100.00;96757.63;10408276;28;20228;-59
2022/10/02 20:47:12;;;;;;;8.13;2.20;;;;;;;9.63;100.00;96770.88;10409502;28;20208;-58
2022/10/02 20:52:33;;;;;;;7.32;2.00;;;;;;;9.74;100.00;96772.44;10409705;28;20201;-59
2022/10/02 20:57:54;;;;;;;6.60;1.90;;;;;;;9.66;100.00;96774.97;10409269;28;20212;-58
2022/10/02 21:03:21;;;;;;;5.63;1.93;;;;;;;9.72;100.00;96786.63;10407915;28;20228;-60
2022/10/02 21:08:46;;;;;;;8.83;2.20;;;;;;;9.77;100.00;96790.44;10408146;28;20234;-57
2022/10/02 21:14:23;;;;;;;3.87;2.30;;;;;;;9.79;100.00;96803.38;10407773;28;20591;-59
2022/10/02 21:19:59;;;;;;;8.83;2.70;;;;;;;9.71;100.00;96806.75;10405235;28;20226;-61
2022/10/02 21:25:34;;;;;;;5.73;2.30;;;;;;;9.72;100.00;96812.78;10408493;28;20302;-61
2022/10/02 21:30:50;;;;;;;7.20;2.20;;;;;;;9.60;100.00;96822.63;10407655;28;20180;-58
2022/10/02 21:35:56;;;;;;;8.53;2.53;;;;;;;9.59;100.00;96832.28;10408243;28;20216;-59
2022/10/02 21:41:16;;;;;;;7.70;2.30;;;;;;;9.55;100.00;96843.19;10407942;28;20208;-60
2022/10/02 21:46:33;;;;;;;9.10;2.10;;;;;;;9.59;100.00;96842.75;10408040;28;20247;-58
2022/10/02 21:52:07;;;;;;;7.93;2.20;;;;;;;9.56;100.00;96845.66;10406873;28;20272;-60
2022/10/02 21:57:40;;;;;;;10.80;2.53;;;;;;;9.63;100.00;96846.72;10407488;28;20255;-59
2022/10/02 22:03:11;;;;;;;9.10;2.43;;;;;;;9.58;100.00;96845.50;10407816;28;20305;-58
2022/10/02 22:08:33;;;;;;;10.27;2.37;;;;;;;9.57;100.00;96847.31;10407366;28;20224;-59
2022/10/02 22:13:36;;;;;;;7.70;2.27;;;;;;;9.59;100.00;96842.75;10407235;28;20593;-60
2022/10/02 22:18:46;;;;;;;9.53;2.10;;;;;;;9.58;100.00;96846.31;10407499;28;20257;-58
2022/10/02 22:24:07;;;;;;;6.87;1.87;;;;;;;9.51;100.00;96850.50;10407461;28;20216;-58
2022/10/02 22:29:17;;;;;;;7.53;1.90;;;;;;;9.46;100.00;96855.34;10407628;28;20224;-57
2022/10/02 22:34:20;;;;;;;7.33;2.03;;;;;;;9.53;100.00;96848.56;10412254;28;20734;-59
2022/10/02 22:39:27;;;;;;;7.13;2.60;;;;;;;9.46;100.00;96853.56;10412453;28;20224;-59
2022/10/02 22:44:51;;;;;;;8.07;2.70;;;;;;;9.52;100.00;96854.75;10413404;28;20200;-62
2022/10/02 22:49:58;;;;;;;6.40;2.77;;;;;;;9.59;100.00;96861.06;10413040;28;20198;-58
2022/10/02 22:55:02;;;;;;;12.27;3.23;;;;;;;9.59;100.00;96862.84;10409475;28;20223;-60
2022/10/02 23:00:19;;;;;;;9.30;2.83;;;;;;;9.61;100.00;96863.53;10412396;28;20228;-60
2022/10/02 23:05:52;;;;;;;18.23;3.57;;;;;;;9.61;100.00;96864.34;10412784;28;20236;-59
2022/10/02 23:11:00;;;;;;;8.80;2.73;;;;;;;9.57;100.00;96863.00;10391333;28;20197;-60
2022/10/02 23:16:21;;;;;;;10.97;3.00;;;;;;;9.57;100.00;96864.78;10413634;28;20705;-60
2022/10/02 23:21:47;;;;;;;15.67;3.40;;;;;;;9.54;100.00;96867.69;10411035;28;20244;-59
2022/10/02 23:27:21;;;;;;;20.73;4.10;;;;;;;9.61;100.00;96874.78;10411935;28;20231;-60
2022/10/02 23:32:43;;;;;;;13.47;3.60;;;;;;;9.59;100.00;96879.38;10410340;28;20719;-59
2022/10/02 23:37:51;;;;;;;11.10;3.47;;;;;;;9.59;100.00;96886.41;10412633;28;20278;-60
2022/10/02 23:42:55;;;;;;;17.90;4.10;;;;;;;9.41;100.00;96886.34;10411768;28;20247;-60
2022/10/02 23:48:03;;;;;;;15.80;3.87;;;;;;;9.48;100.00;96890.03;10410113;28;20228;-60
2022/10/02 23:53:15;;;;;;;16.97;4.10;;;;;;;9.44;100.00;96889.47;10411036;28;20707;-60
2022/10/02 23:58:23;;;;;;;14.43;3.73;;;;;;;9.50;100.00;96893.31;10409907;28;20208;-60
